Time;durP1;ratioP1;P1;durP2;ratioP2;P2;SDS_P1;SDS_P2;PMS_P1;PMS_P2;Temp;Humidity;BMP_temperature;BMP_pressure;BME280_temperature;BME280_humidity;BME280_pressure;Samples;Min_cycle;Max_cycle;Signal;HPM_P1;HPM_P2
2023/10/09 00:03:01;;;;;;;10.02;4.55;;;14.80;99.90;;;;;;5004866;28;20050;-76
2023/10/09 00:05:45;;;;;;;17.73;4.55;;;14.80;99.90;;;;;;5003141;28;20041;-76
2023/10/09 00:08:21;;;;;;;9.43;4.75;;;14.80;99.90;;;;;;5002739;28;20121;-77
2023/10/09 00:10:57;;;;;;;13.93;4.35;;;14.80;99.90;;;;;;4990628;28;20100;-76
2023/10/09 00:13:30;;;;;;;11.73;4.03;;;14.80;99.90;;;;;;4984899;28;20381;-76
2023/10/09 00:16:01;;;;;;;13.30;6.13;;;14.80;99.90;;;;;;5017105;28;20042;-76
2023/10/09 00:18:30;;;;;;;15.85;5.70;;;14.80;99.90;;;;;;5003415;28;20042;-76
2023/10/09 00:21:00;;;;;;;12.43;5.13;;;14.80;99.90;;;;;;5002934;28;20077;-76
2023/10/09 00:23:27;;;;;;;18.05;6.15;;;14.80;99.90;;;;;;5002217;28;20048;-76
2023/10/09 00:26:11;;;;;;;17.08;5.25;;;14.80;99.90;;;;;;5002592;28;20065;-76
2023/10/09 00:28:47;;;;;;;17.25;7.93;;;14.80;99.90;;;;;;4988850;28;20047;-76
2023/10/09 00:31:16;;;;;;;15.90;7.00;;;14.80;99.90;;;;;;4984407;28;20621;-75
2023/10/09 00:33:45;;;;;;;15.85;8.00;;;14.80;99.90;;;;;;4996060;28;20038;-76
2023/10/09 00:36:11;;;;;;;19.67;7.70;;;14.80;99.90;;;;;;4982971;28;20050;-75
2023/10/09 00:38:45;;;;;;;18.02;7.57;;;14.80;99.90;;;;;;4987034;28;20046;-75
2023/10/09 00:41:10;;;;;;;25.63;8.57;;;14.80;99.90;;;;;;4987388;28;20104;-76
2023/10/09 00:43:37;;;;;;;22.33;8.88;;;14.80;99.90;;;;;;5004801;28;20042;-75
2023/10/09 00:46:47;;;;;;;21.02;10.60;;;14.80;99.90;;;;;;4984944;28;20501;-76
2023/10/09 00:48:57;;;;;;;24.60;8.50;;;14.80;99.90;;;;;;4993478;28;20653;-75
2023/10/09 00:51:24;;;;;;;26.58;9.23;;;14.80;99.90;;;;;;5001530;28;20096;-76
2023/10/09 00:53:53;;;;;;;19.95;9.40;;;14.80;99.90;;;;;;5000643;28;20116;-75
2023/10/09 00:59:08;;;;;;;24.65;9.27;;;14.80;99.90;;;;;;5003888;28;20129;-76
2023/10/09 01:01:36;;;;;;;;;;;14.80;99.90;;;;;;5003073;28;20127;-76
2023/10/09 01:04:17;;;;;;;25.83;9.43;;;14.80;99.90;;;;;;5072362;23;19921;-75
2023/10/09 01:06:44;;;;;;;30.48;10.38;;;14.80;99.90;;;;;;5040884;28;20048;-76
2023/10/09 01:09:14;;;;;;;24.40;10.05;;;14.80;99.90;;;;;;5029173;28;20565;-76
2023/10/09 01:12:03;;;;;;;23.25;9.85;;;14.80;99.90;;;;;;5023477;28;20518;-76
2023/10/09 01:14:31;;;;;;;26.55;10.90;;;14.80;99.90;;;;;;5020800;28;20564;-76
2023/10/09 01:16:57;;;;;;;28.60;10.82;;;14.80;99.90;;;;;;5027187;28;20041;-75
2023/10/09 01:19:30;;;;;;;28.00;10.68;;;14.80;99.90;;;;;;5023150;28;20038;-76
2023/10/09 01:22:15;;;;;;;25.55;10.32;;;14.80;99.90;;;;;;5021779;28;20580;-75
2023/10/09 01:24:41;;;;;;;24.80;11.60;;;14.80;99.90;;;;;;5025024;28;20124;-76
2023/10/09 01:27:16;;;;;;;27.85;10.52;;;14.80;99.90;;;;;;5023083;28;20088;-75
2023/10/09 01:29:43;;;;;;;29.55;12.13;;;14.80;99.90;;;;;;5020965;28;20731;-75
2023/10/09 01:32:19;;;;;;;27.48;10.65;;;14.80;99.90;;;;;;5021630;28;20146;-77
2023/10/09 01:34:48;;;;;;;22.27;12.30;;;14.80;99.90;;;;;;5023454;28;20037;-76
2023/10/09 01:37:18;;;;;;;30.50;10.70;;;14.80;99.90;;;;;;5022074;28;20496;-76
2023/10/09 01:39:48;;;;;;;32.35;12.35;;;14.90;99.90;;;;;;5030629;28;20400;-76
2023/10/09 01:44:58;;;;;;;35.55;13.55;;;14.90;99.90;;;;;;5030117;28;20049;-77
2023/10/09 01:47:25;;;;;;;31.15;11.70;;;14.90;99.90;;;;;;5035295;28;20047;-76
2023/10/09 01:49:53;;;;;;;38.42;15.45;;;14.90;99.90;;;;;;5034745;28;20045;-75
2023/10/09 01:52:20;;;;;;;34.90;13.93;;;14.90;99.90;;;;;;5024944;28;20049;-76
2023/10/09 01:54:48;;;;;;;29.73;11.32;;;14.90;99.90;;;;;;5025215;28;20053;-76
2023/10/09 01:57:15;;;;;;;31.40;11.88;;;14.80;99.90;;;;;;5021875;28;20053;-75
2023/10/09 01:59:49;;;;;;;45.17;12.45;;;14.90;99.90;;;;;;5021997;28;20099;-76
2023/10/09 02:02:33;;;;;;;30.25;14.52;;;14.90;99.90;;;;;;5021634;28;20077;-76
2023/10/09 02:05:24;;;;;;;30.75;13.73;;;14.90;99.90;;;;;;5015643;28;20052;-76
2023/10/09 02:07:53;;;;;;;29.95;12.07;;;14.90;99.90;;;;;;5027643;28;20049;-76
2023/10/09 02:12:53;;;;;;;30.58;12.27;;;14.90;99.90;;;;;;5022871;28;20124;-76
2023/10/09 02:15:40;;;;;;;33.03;13.02;;;14.80;99.90;;;;;;5020229;28;20049;-76
2023/10/09 02:18:17;;;;;;;33.22;12.25;;;14.90;99.90;;;;;;5021778;28;20081;-76
2023/10/09 02:20:47;;;;;;;30.30;13.40;;;14.90;99.90;;;;;;5032588;28;20044;-76
2023/10/09 02:23:13;;;;;;;28.27;12.32;;;14.90;99.90;;;;;;5021123;28;20060;-76
2023/10/09 02:25:43;;;;;;;34.92;15.55;;;14.90;99.90;;;;;;5009979;28;20523;-77
2023/10/09 02:28:17;;;;;;;26.58;12.57;;;14.90;99.90;;;;;;5004904;28;20038;-77
2023/10/09 02:30:49;;;;;;;26.42;12.48;;;14.90;99.90;;;;;;5020130;28;20496;-76
2023/10/09 02:33:27;;;;;;;28.35;11.65;;;14.90;99.90;;;;;;5022158;28;20088;-76
2023/10/09 02:35:54;;;;;;;30.27;12.60;;;14.90;99.90;;;;;;5023805;28;20057;-76
2023/10/09 02:38:23;;;;;;;28.33;13.52;;;14.80;99.90;;;;;;5021939;28;20072;-75
2023/10/09 02:43:44;;;;;;;31.33;11.82;;;14.90;99.90;;;;;;5024732;28;20057;-75
2023/10/09 02:46:17;;;;;;;29.92;11.05;;;14.90;99.90;;;;;;5024835;28;20099;-77
2023/10/09 02:48:52;;;;;;;30.08;11.07;;;14.80;99.90;;;;;;5044970;28;20090;-76
2023/10/09 02:54:18;;;;;;;32.78;12.95;;;14.90;99.90;;;;;;5044415;28;20052;-76
2023/10/09 02:57:05;;;;;;;24.98;10.57;;;14.90;99.90;;;;;;5024936;28;20056;-76
2023/10/09 02:59:30;;;;;;;31.70;11.85;;;14.90;99.90;;;;;;5023903;28;20038;-75
2023/10/09 03:01:57;;;;;;;22.88;12.57;;;14.90;99.90;;;;;;5029598;28;20037;-75
2023/10/09 03:04:23;;;;;;;24.27;11.63;;;14.90;99.90;;;;;;5026547;28;20048;-76
2023/10/09 03:06:57;;;;;;;25.48;11.18;;;14.90;99.90;;;;;;5035124;28;20056;-76
2023/10/09 03:09:26;;;;;;;24.27;11.73;;;14.90;99.90;;;;;;5025479;28;20124;-75
2023/10/09 03:11:54;;;;;;;23.30;10.55;;;14.90;99.90;;;;;;5007603;28;20033;-75
2023/10/09 03:14:21;;;;;;;24.13;9.98;;;14.90;99.90;;;;;;5023460;28;20710;-76
2023/10/09 03:16:50;;;;;;;19.42;9.55;;;14.90;99.90;;;;;;5024585;28;20046;-76
2023/10/09 03:19:16;;;;;;;20.77;9.30;;;14.90;99.90;;;;;;5024305;28;20045;-76
2023/10/09 03:21:42;;;;;;;20.13;8.20;;;15.00;99.90;;;;;;5024611;28;20037;-76
2023/10/09 03:24:08;;;;;;;21.25;8.45;;;15.00;99.90;;;;;;5027537;28;20041;-76
2023/10/09 03:26:34;;;;;;;15.18;8.52;;;15.00;99.90;;;;;;5044572;28;20045;-75
2023/10/09 03:29:06;;;;;;;15.90;7.53;;;15.00;99.90;;;;;;5043404;28;20156;-75
2023/10/09 03:31:36;;;;;;;15.93;6.75;;;15.00;99.90;;;;;;5043908;28;20115;-76
2023/10/09 03:34:02;;;;;;;17.85;7.47;;;15.00;99.90;;;;;;5043981;28;20048;-76
2023/10/09 03:36:37;;;;;;;17.10;6.25;;;15.00;99.90;;;;;;5042997;28;20055;-77
2023/10/09 03:39:07;;;;;;;16.13;6.55;;;15.00;99.90;;;;;;5043441;28;20051;-76
2023/10/09 03:41:40;;;;;;;18.42;6.18;;;15.10;99.90;;;;;;5025435;28;20127;-76
2023/10/09 03:44:06;;;;;;;;;;;15.10;99.90;;;;;;5044885;28;20049;-76
2023/10/09 03:46:33;;;;;;;12.70;4.80;;;15.10;99.90;;;;;;5042673;28;19916;-77
2023/10/09 03:49:04;;;;;;;14.75;5.10;;;15.20;99.90;;;;;;5043822;28;20053;-76
2023/10/09 03:51:33;;;;;;;8.55;4.90;;;15.20;99.90;;;;;;5043000;28;20069;-75
2023/10/09 03:53:58;;;;;;;9.95;5.35;;;15.20;99.90;;;;;;5043092;28;20044;-76
2023/10/09 03:56:24;;;;;;;8.40;4.68;;;15.20;99.90;;;;;;5042036;28;20456;-76
2023/10/09 03:58:54;;;;;;;15.45;5.32;;;15.30;99.90;;;;;;5031350;28;20114;-75
2023/10/09 04:01:37;;;;;;;9.23;4.82;;;15.30;99.90;;;;;;5043627;28;20080;-76
2023/10/09 04:04:06;;;;;;;15.88;5.40;;;15.30;99.90;;;;;;5043289;28;20083;-76
2023/10/09 04:06:33;;;;;;;11.93;5.10;;;15.30;99.90;;;;;;5027503;28;20049;-76
2023/10/09 04:22:50;;;;;;;12.73;5.88;;;15.40;99.90;;;;;;5024341;28;20535;-76
2023/10/09 04:25:25;;;;;;;13.02;5.20;;;15.50;99.90;;;;;;5023823;28;20048;-75
2023/10/09 04:28:09;;;;;;;10.73;4.43;;;15.50;99.90;;;;;;5006764;28;20049;-76
2023/10/09 04:30:46;;;;;;;8.43;4.57;;;15.50;99.90;;;;;;5022999;28;20042;-75
2023/10/09 04:34:21;;;;;;;10.50;4.75;;;15.50;99.90;;;;;;5028655;28;20068;-76
2023/10/09 04:38:59;;;;;;;;;;;15.50;99.90;;;;;;5043384;28;20521;-76
2023/10/09 04:44:36;;;;;;;18.30;4.22;;;15.50;99.90;;;;;;5041948;28;20506;-77
2023/10/09 04:50:01;;;;;;;11.52;5.50;;;15.50;99.90;;;;;;5033610;28;20076;-75
2023/10/09 04:55:14;;;;;;;10.48;5.07;;;15.50;99.90;;;;;;5022022;28;20080;-75
2023/10/09 05:02:56;;;;;;;9.93;4.53;;;15.60;99.90;;;;;;5031608;28;20454;-75
2023/10/09 05:08:20;;;;;;;9.80;4.18;;;15.60;99.90;;;;;;5027053;28;20057;-75
2023/10/09 05:11:34;;;;;;;11.13;4.93;;;15.60;99.90;;;;;;5023547;28;20493;-75
2023/10/09 05:16:28;;;;;;;8.25;4.20;;;15.60;99.90;;;;;;5022804;28;20056;-75
2023/10/09 05:18:59;;;;;;;11.65;4.32;;;15.60;99.90;;;;;;5021997;28;20073;-75
2023/10/09 05:21:44;;;;;;;9.07;5.03;;;15.60;99.90;;;;;;5021765;28;20037;-75
2023/10/09 05:34:34;;;;;;;9.93;4.00;;;15.70;99.90;;;;;;5021811;28;21255;-76
2023/10/09 05:40:53;;;;;;;12.07;6.10;;;15.70;99.90;;;;;;5028459;28;20044;-76
2023/10/09 05:42:45;;;;;;;8.15;4.47;;;15.70;99.90;;;;;;5022502;28;20048;-76
2023/10/09 05:47:53;;;;;;;;;;;15.70;99.90;;;;;;5027735;28;20052;-76
2023/10/09 05:55:49;;;;;;;10.05;4.03;;;15.70;99.90;;;;;;5025742;28;20087;-76
2023/10/09 06:11:54;;;;;;;8.48;4.05;;;15.80;99.90;;;;;;5030663;28;20480;-71
2023/10/09 06:17:01;;;;;;;15.38;4.50;;;15.70;99.90;;;;;;5028779;28;20053;-71
2023/10/09 06:19:40;;;;;;;10.20;4.32;;;15.80;99.90;;;;;;5019081;28;20228;-71
2023/10/09 06:32:57;;;;;;;13.82;3.75;;;15.80;99.90;;;;;;5031026;28;20065;-72
2023/10/09 06:35:30;;;;;;;11.50;3.90;;;15.80;99.90;;;;;;5018774;28;20510;-73
2023/10/09 06:46:19;;;;;;;9.27;4.57;;;15.80;99.90;;;;;;5034924;28;20064;-71
2023/10/09 06:48:56;;;;;;;10.80;4.15;;;15.80;99.90;;;;;;5037070;28;20124;-72
2023/10/09 06:59:04;;;;;;;9.38;3.65;;;15.80;99.90;;;;;;5034377;28;20080;-71
2023/10/09 07:01:42;;;;;;;9.43;4.40;;;15.80;99.90;;;;;;5037795;28;20550;-72
2023/10/09 07:06:59;;;;;;;13.60;4.13;;;15.80;99.90;;;;;;5024508;28;20637;-71
2023/10/09 07:09:41;;;;;;;8.68;4.53;;;15.80;99.90;;;;;;5025570;28;20041;-72
2023/10/09 07:12:09;;;;;;;9.55;4.20;;;15.80;99.90;;;;;;5055798;28;20636;-71
2023/10/09 07:22:39;;;;;;;16.27;5.45;;;15.80;99.90;;;;;;5033170;28;20045;-72
2023/10/09 07:25:14;;;;;;;11.38;4.60;;;15.80;99.90;;;;;;5028600;28;20046;-72
2023/10/09 07:33:16;;;;;;;9.05;3.80;;;15.80;99.90;;;;;;5029584;28;20050;-72
2023/10/09 07:38:28;;;;;;;11.52;4.00;;;15.80;99.90;;;;;;5024135;28;20060;-73
2023/10/09 07:43:39;;;;;;;9.18;4.15;;;15.80;99.90;;;;;;5043492;28;20049;-71
2023/10/09 07:48:55;;;;;;;9.18;3.90;;;15.90;99.90;;;;;;5043779;28;20048;-71
2023/10/09 07:51:31;;;;;;;10.90;4.28;;;15.90;99.90;;;;;;5025767;28;20051;-71
2023/10/09 07:54:07;;;;;;;19.90;5.07;;;15.90;99.90;;;;;;5027644;28;20033;-71
2023/10/09 07:56:45;;;;;;;16.63;3.90;;;15.90;99.90;;;;;;5027431;28;20036;-71
2023/10/09 07:59:12;;;;;;;13.18;4.18;;;15.90;99.90;;;;;;5019813;28;20048;-71
2023/10/09 08:01:58;;;;;;;13.52;3.75;;;15.90;99.90;;;;;;5036193;28;20394;-71
2023/10/09 08:04:39;;;;;;;11.10;4.30;;;15.90;99.90;;;;;;5022704;28;20132;-72
2023/10/09 08:07:09;;;;;;;9.95;3.97;;;15.90;99.90;;;;;;5029738;28;20142;-71
2023/10/09 08:09:46;;;;;;;13.45;4.88;;;15.90;99.90;;;;;;5025577;28;20242;-71
2023/10/09 08:17:53;;;;;;;7.50;3.60;;;16.00;99.90;;;;;;5021680;28;20056;-71
2023/10/09 08:20:27;;;;;;;9.95;3.92;;;16.00;99.90;;;;;;5024631;28;20044;-71
2023/10/09 08:22:55;;;;;;;12.55;4.63;;;16.00;99.90;;;;;;5043059;28;20036;-72
2023/10/09 08:25:28;;;;;;;11.35;3.70;;;16.00;99.90;;;;;;5042924;28;20040;-71
2023/10/09 08:28:39;;;;;;;11.52;3.90;;;16.00;99.90;;;;;;5021808;28;20045;-71
2023/10/09 08:30:50;;;;;;;12.20;3.67;;;16.00;99.90;;;;;;5030636;28;20398;-71
2023/10/09 08:36:22;;;;;;;11.05;3.05;;;16.00;99.90;;;;;;5026861;28;20045;-71
2023/10/09 08:38:41;;;;;;;7.88;3.70;;;16.00;99.90;;;;;;5024482;28;20129;-72
2023/10/09 08:41:17;;;;;;;11.13;3.17;;;16.10;99.90;;;;;;5030123;28;20050;-71
2023/10/09 08:43:50;;;;;;;7.90;4.25;;;16.10;99.90;;;;;;5019760;28;20589;-71
2023/10/09 08:46:20;;;;;;;10.68;4.40;;;16.10;99.90;;;;;;5029447;28;20464;-71
2023/10/09 08:48:46;;;;;;;7.60;3.45;;;16.10;99.90;;;;;;5020925;28;20064;-71
2023/10/09 08:51:14;;;;;;;10.95;4.25;;;16.10;99.90;;;;;;5020635;28;20467;-71
2023/10/09 08:53:42;;;;;;;12.98;4.38;;;16.10;99.90;;;;;;5021268;28;20081;-72
2023/10/09 08:56:10;;;;;;;14.00;4.30;;;16.10;99.90;;;;;;5024276;28;20037;-71
2023/10/09 08:58:40;;;;;;;11.18;3.58;;;16.10;99.90;;;;;;5055915;28;20048;-71
2023/10/09 09:01:06;;;;;;;10.45;3.65;;;16.20;99.90;;;;;;5041128;28;20048;-71
2023/10/09 09:03:40;;;;;;;7.35;4.20;;;16.20;99.90;;;;;;5025777;28;20052;-71
2023/10/09 09:06:06;;;;;;;18.30;4.60;;;16.20;99.90;;;;;;5020684;28;20045;-71
2023/10/09 09:08:36;;;;;;;7.47;4.10;;;16.20;99.90;;;;;;5026308;28;20033;-71
2023/10/09 09:11:14;;;;;;;11.45;4.03;;;16.20;99.90;;;;;;5033883;28;20029;-70
2023/10/09 09:13:49;;;;;;;9.80;3.92;;;16.20;99.90;;;;;;5024944;28;20044;-72
2023/10/09 09:16:18;;;;;;;10.13;4.20;;;16.30;99.90;;;;;;5031246;28;20062;-71
2023/10/09 09:19:00;;;;;;;11.68;4.63;;;16.30;99.90;;;;;;5035737;28;20095;-71
2023/10/09 09:21:27;;;;;;;13.27;4.28;;;16.30;99.90;;;;;;5037825;28;20049;-72
2023/10/09 09:23:59;;;;;;;11.38;3.97;;;16.30;99.90;;;;;;5038695;28;20124;-71
2023/10/09 09:26:44;;;;;;;11.32;4.38;;;16.30;99.90;;;;;;5021786;28;20452;-72
2023/10/09 09:29:10;;;;;;;17.67;4.60;;;16.40;99.90;;;;;;5027423;28;20496;-71
2023/10/09 09:31:38;;;;;;;7.93;3.92;;;16.40;99.90;;;;;;5039005;28;20124;-71
2023/10/09 09:34:12;;;;;;;12.25;4.32;;;16.40;99.90;;;;;;5040360;28;20051;-71
2023/10/09 09:36:53;;;;;;;11.75;4.10;;;16.40;99.90;;;;;;5025498;28;20098;-71
2023/10/09 09:39:28;;;;;;;14.52;4.28;;;16.40;99.90;;;;;;5036404;28;20033;-72
2023/10/09 09:42:07;;;;;;;9.25;3.70;;;16.40;99.90;;;;;;5041016;28;20041;-71
2023/10/09 09:44:34;;;;;;;16.80;4.85;;;16.50;99.90;;;;;;5038236;28;20403;-71
2023/10/09 09:47:01;;;;;;;6.53;3.35;;;16.50;99.90;;;;;;5037754;28;20453;-70
2023/10/09 09:49:32;;;;;;;11.25;4.72;;;16.50;99.90;;;;;;5018508;28;20114;-71
2023/10/09 09:52:01;;;;;;;9.13;3.97;;;16.50;99.90;;;;;;5020912;28;20045;-72
2023/10/09 09:54:27;;;;;;;11.00;4.43;;;16.50;99.90;;;;;;5024886;28;20037;-72
2023/10/09 09:56:55;;;;;;;11.25;4.82;;;16.60;99.90;;;;;;5034300;28;20407;-73
2023/10/09 09:59:29;;;;;;;18.38;7.50;;;16.60;99.90;;;;;;5038678;28;20114;-73
2023/10/09 10:01:57;;;;;;;12.10;5.03;;;16.60;99.90;;;;;;5024681;28;20103;-72
2023/10/09 10:04:28;;;;;;;11.32;4.20;;;16.60;99.90;;;;;;5019577;28;20400;-72
2023/10/09 10:06:55;;;;;;;10.98;4.20;;;16.60;99.90;;;;;;5024838;28;20127;-72
2023/10/09 10:09:41;;;;;;;8.38;4.60;;;16.60;99.90;;;;;;5039874;28;20487;-73
2023/10/09 10:12:11;;;;;;;11.23;3.72;;;16.60;99.90;;;;;;5023697;28;20073;-73
2023/10/09 10:15:05;;;;;;;9.07;3.97;;;16.60;99.90;;;;;;5020417;28;20468;-73
2023/10/09 10:17:31;;;;;;;12.43;4.85;;;16.60;99.90;;;;;;5053532;28;20040;-74
2023/10/09 10:20:00;;;;;;;11.52;3.67;;;16.60;99.90;;;;;;5026292;28;20075;-72
2023/10/09 10:22:30;;;;;;;13.15;4.53;;;16.60;99.90;;;;;;5037753;28;20133;-73
2023/10/09 10:25:09;;;;;;;9.32;3.67;;;16.60;99.90;;;;;;5021410;28;20049;-72
2023/10/09 10:28:00;;;;;;;6.75;3.65;;;16.60;99.90;;;;;;5019187;28;20495;-73
2023/10/09 10:30:30;;;;;;;8.85;3.67;;;16.70;99.90;;;;;;5013758;28;20038;-73
2023/10/09 10:33:09;;;;;;;8.75;3.75;;;16.70;99.90;;;;;;5019664;28;20363;-73
2023/10/09 10:35:46;;;;;;;10.15;3.65;;;16.70;99.90;;;;;;5021996;28;20503;-72
2023/10/09 10:38:36;;;;;;;10.35;4.35;;;16.70;99.90;;;;;;5022597;28;20073;-72
2023/10/09 10:41:12;;;;;;;8.05;3.38;;;16.80;99.90;;;;;;5021202;28;20388;-72
2023/10/09 10:46:24;;;;;;;12.75;4.07;;;16.80;99.90;;;;;;5018697;28;20054;-72
2023/10/09 10:49:00;;;;;;;14.88;4.25;;;16.90;99.90;;;;;;5022616;28;20049;-72
2023/10/09 10:51:35;;;;;;;7.72;3.45;;;17.00;99.90;;;;;;5016295;28;20103;-72
2023/10/09 10:54:26;;;;;;;9.05;3.47;;;17.00;99.90;;;;;;5035775;28;20044;-73
2023/10/09 10:56:53;;;;;;;6.55;2.63;;;17.00;99.90;;;;;;5019702;28;20049;-72
2023/10/09 10:59:25;;;;;;;6.13;2.58;;;17.00;99.90;;;;;;5030322;28;20407;-72
2023/10/09 11:04:38;;;;;;;7.28;3.10;;;17.00;99.90;;;;;;5037178;28;19928;-73
2023/10/09 11:15:44;;;;;;;6.47;3.53;;;16.90;99.90;;;;;;5022066;28;20049;-72
2023/10/09 11:18:20;;;;;;;6.43;3.72;;;16.90;99.90;;;;;;5033258;28;20041;-74
2023/10/09 11:28:57;;;;;;;7.13;3.00;;;16.80;99.90;;;;;;5037956;28;20060;-73
2023/10/09 11:31:23;;;;;;;8.10;2.50;;;16.90;99.90;;;;;;5036573;28;20094;-73
2023/10/09 11:33:51;;;;;;;4.05;2.55;;;16.80;99.90;;;;;;5025846;28;20258;-74
2023/10/09 11:36:32;;;;;;;8.85;3.00;;;16.90;99.90;;;;;;5037584;28;20064;-74
2023/10/09 11:39:14;;;;;;;7.37;3.13;;;16.80;99.90;;;;;;5030764;28;20214;-73
2023/10/09 11:41:44;;;;;;;11.63;2.92;;;16.90;99.90;;;;;;5026515;28;20128;-74
2023/10/09 11:44:33;;;;;;;5.75;2.35;;;16.90;99.90;;;;;;5027027;28;20080;-74
2023/10/09 11:47:54;;;;;;;8.80;2.88;;;16.90;99.90;;;;;;5037338;28;20352;-73
2023/10/09 11:52:37;;;;;;;7.15;2.63;;;16.90;99.90;;;;;;5031912;28;20041;-75
2023/10/09 11:55:16;;;;;;;7.93;2.58;;;16.90;99.90;;;;;;5039990;28;20048;-75
2023/10/09 11:57:42;;;;;;;3.40;1.95;;;16.90;99.90;;;;;;5027386;28;20045;-74
2023/10/09 12:00:28;;;;;;;14.32;2.63;;;17.00;99.90;;;;;;5041623;28;20041;-73
2023/10/09 12:02:54;;;;;;;7.50;2.47;;;17.00;99.90;;;;;;5056907;28;20056;-73
2023/10/09 12:05:19;;;;;;;5.32;1.92;;;17.10;99.90;;;;;;5040850;28;20496;-74
2023/10/09 12:07:46;;;;;;;6.30;1.90;;;17.10;99.90;;;;;;5041141;28;20092;-73
2023/10/09 12:10:24;;;;;;;4.50;2.47;;;17.10;99.90;;;;;;5042755;28;20140;-73
2023/10/09 12:12:50;;;;;;;4.85;3.78;;;17.20;99.90;;;;;;5039640;28;20056;-74
2023/10/09 12:15:17;;;;;;;5.10;2.28;;;17.20;99.90;;;;;;5041287;28;20049;-73
2023/10/09 12:17:46;;;;;;;4.93;2.28;;;17.20;99.90;;;;;;5039565;28;21153;-76
2023/10/09 12:20:31;;;;;;;2.95;2.20;;;17.20;99.90;;;;;;5040648;28;20033;-74
2023/10/09 12:22:58;;;;;;;9.57;2.20;;;17.30;99.90;;;;;;5042807;28;20048;-75
2023/10/09 12:25:25;;;;;;;3.85;2.03;;;17.30;99.90;;;;;;5021096;28;20049;-74
2023/10/09 12:27:57;;;;;;;7.47;1.67;;;17.20;99.90;;;;;;5037999;28;20510;-75
2023/10/09 12:30:26;;;;;;;12.63;3.13;;;17.30;99.90;;;;;;5040731;28;20040;-74
2023/10/09 12:32:57;;;;;;;5.88;1.50;;;17.20;99.90;;;;;;5038479;28;20045;-75
2023/10/09 12:35:28;;;;;;;5.95;1.83;;;17.20;99.90;;;;;;5036514;28;20041;-73
2023/10/09 12:37:54;;;;;;;3.42;2.15;;;17.20;99.90;;;;;;5041817;28;20041;-74
2023/10/09 12:40:29;;;;;;;5.15;1.75;;;17.20;99.90;;;;;;5042245;28;20387;-75
2023/10/09 12:42:58;;;;;;;7.18;2.53;;;17.20;99.90;;;;;;5036053;28;20052;-75
2023/10/09 12:45:32;;;;;;;6.55;2.28;;;17.20;99.90;;;;;;5037858;28;20560;-75
2023/10/09 12:48:08;;;;;;;6.47;2.10;;;17.10;99.90;;;;;;5024401;28;20049;-74
2023/10/09 12:50:34;;;;;;;5.40;1.92;;;17.20;99.90;;;;;;5040974;28;20097;-75
2023/10/09 12:53:06;;;;;;;9.73;3.03;;;17.10;99.90;;;;;;5038673;28;20040;-74
2023/10/09 12:55:35;;;;;;;;;;;17.10;99.90;;;;;;5036486;28;20495;-74
2023/10/09 12:58:06;;;;;;;9.27;2.92;;;17.10;99.90;;;;;;5032526;28;20313;-74
2023/10/09 13:00:33;;;;;;;7.95;2.40;;;17.10;99.90;;;;;;5040303;28;20044;-74
2023/10/09 13:03:13;;;;;;;10.80;2.97;;;17.20;99.90;;;;;;5023477;28;20190;-73
2023/10/09 13:05:51;;;;;;;8.15;2.08;;;17.10;99.90;;;;;;5040062;28;20084;-77
2023/10/09 13:08:21;;;;;;;3.97;1.98;;;17.10;99.90;;;;;;5028888;28;20513;-75
2023/10/09 13:10:58;;;;;;;4.85;2.38;;;17.10;99.90;;;;;;5039846;28;20199;-75
2023/10/09 13:13:41;;;;;;;17.55;2.80;;;17.10;99.90;;;;;;5017213;28;20045;-73
2023/10/09 13:16:13;;;;;;;5.25;2.08;;;17.10;99.90;;;;;;5033620;28;20076;-75
2023/10/09 13:18:49;;;;;;;10.13;2.65;;;17.10;99.90;;;;;;5035595;28;20037;-75
2023/10/09 13:21:16;;;;;;;9.68;2.45;;;17.10;99.90;;;;;;5032759;28;20040;-74
2023/10/09 13:23:46;;;;;;;11.18;2.28;;;17.10;99.90;;;;;;5031003;28;20130;-75
2023/10/09 13:26:19;;;;;;;6.13;1.95;;;17.10;99.90;;;;;;5055723;28;20053;-76
2023/10/09 13:28:49;;;;;;;3.80;2.47;;;17.10;99.90;;;;;;5032630;28;20518;-75
2023/10/09 13:31:16;;;;;;;5.18;2.60;;;17.10;99.90;;;;;;5017192;28;20040;-74
2023/10/09 13:33:43;;;;;;;5.15;1.80;;;17.10;99.90;;;;;;5028391;28;20053;-78
2023/10/09 13:36:19;;;;;;;4.25;2.55;;;17.10;99.90;;;;;;5028363;28;20123;-77
2023/10/09 13:38:47;;;;;;;8.20;3.35;;;17.10;99.90;;;;;;5029107;28;20044;-76
2023/10/09 13:41:17;;;;;;;4.93;2.60;;;17.10;99.90;;;;;;5031796;28;20030;-77
2023/10/09 13:43:43;;;;;;;7.22;2.38;;;17.10;99.90;;;;;;5030291;28;20118;-77
2023/10/09 13:46:11;;;;;;;6.68;1.90;;;17.10;99.90;;;;;;5049896;28;20395;-77
2023/10/09 13:48:41;;;;;;;4.40;2.30;;;17.10;99.90;;;;;;5027691;28;20037;-76
2023/10/09 13:51:09;;;;;;;5.28;2.10;;;17.10;99.90;;;;;;5031884;28;20044;-77
2023/10/09 13:53:44;;;;;;;4.30;1.40;;;17.10;99.90;;;;;;5032258;28;20045;-78
2023/10/09 13:56:18;;;;;;;7.13;2.13;;;17.10;99.90;;;;;;5036121;28;20077;-78
2023/10/09 13:58:50;;;;;;;5.40;1.92;;;17.10;99.90;;;;;;5022098;28;20484;-77
2023/10/09 14:01:28;;;;;;;2.83;1.60;;;17.10;99.90;;;;;;5051597;28;20048;-76
2023/10/09 14:03:55;;;;;;;4.93;1.70;;;17.10;99.90;;;;;;5042259;28;20534;-76
2023/10/09 14:06:30;;;;;;;3.10;1.80;;;17.10;99.90;;;;;;5018690;28;20672;-75
2023/10/09 14:09:04;;;;;;;4.15;1.95;;;17.10;99.90;;;;;;5036302;28;20049;-74
2023/10/09 14:11:30;;;;;;;3.95;1.63;;;17.10;99.90;;;;;;5037658;28;20036;-74
2023/10/09 14:13:55;;;;;;;4.95;1.65;;;17.10;99.90;;;;;;5036638;28;20475;-75
2023/10/09 14:16:24;;;;;;;12.43;2.20;;;17.00;99.90;;;;;;5030919;28;20037;-73
2023/10/09 14:19:00;;;;;;;5.47;1.45;;;17.10;99.90;;;;;;5016804;28;20041;-77
2023/10/09 14:21:32;;;;;;;6.50;1.90;;;17.10;99.90;;;;;;5028585;28;20106;-76
2023/10/09 14:23:58;;;;;;;4.80;1.40;;;17.10;99.90;;;;;;5027527;28;20649;-76
2023/10/09 14:26:28;;;;;;;4.25;1.67;;;17.00;99.90;;;;;;5032227;28;20132;-78
2023/10/09 14:28:56;;;;;;;4.32;2.40;;;17.00;99.90;;;;;;5026311;28;20045;-74
2023/10/09 14:31:26;;;;;;;3.53;1.85;;;17.00;99.90;;;;;;5027793;28;20487;-77
2023/10/09 14:33:56;;;;;;;5.35;1.55;;;17.00;99.90;;;;;;5034642;28;20282;-75
2023/10/09 14:36:23;;;;;;;3.15;1.50;;;17.00;99.90;;;;;;5034647;28;20064;-74
2023/10/09 14:38:56;;;;;;;5.22;1.70;;;17.00;99.90;;;;;;5033672;28;20037;-75
2023/10/09 14:41:26;;;;;;;4.28;1.88;;;17.00;99.90;;;;;;5035925;28;20530;-75
2023/10/09 14:43:53;;;;;;;3.85;1.92;;;17.00;99.90;;;;;;5030398;28;20049;-75
2023/10/09 14:46:26;;;;;;;8.02;2.63;;;16.90;99.90;;;;;;5034206;28;20033;-74
2023/10/09 14:48:55;;;;;;;3.83;1.55;;;16.90;99.90;;;;;;5033689;28;20048;-74
2023/10/09 14:51:27;;;;;;;4.93;1.48;;;16.90;99.90;;;;;;5018709;28;20048;-74
2023/10/09 14:53:57;;;;;;;6.32;1.60;;;16.90;99.90;;;;;;5042463;28;20403;-74
2023/10/09 14:56:29;;;;;;;4.18;1.48;;;16.90;99.90;;;;;;5034430;28;20041;-74
2023/10/09 14:58:58;;;;;;;5.00;1.85;;;16.90;99.90;;;;;;5025744;28;20438;-74
2023/10/09 15:01:29;;;;;;;3.53;1.30;;;16.90;99.90;;;;;;5032665;28;20029;-74
2023/10/09 15:03:59;;;;;;;5.38;1.80;;;16.90;99.90;;;;;;5059242;28;20087;-74
2023/10/09 15:06:27;;;;;;;7.10;2.05;;;16.90;99.90;;;;;;5026742;28;20045;-74
2023/10/09 15:08:55;;;;;;;1.92;1.00;;;16.90;99.90;;;;;;5026051;28;20081;-76
2023/10/09 15:11:25;;;;;;;5.15;1.25;;;16.90;99.90;;;;;;5031483;28;20029;-74
2023/10/09 15:13:53;;;;;;;4.10;1.75;;;16.80;99.90;;;;;;5025953;28;20041;-74
2023/10/09 15:16:21;;;;;;;8.40;1.30;;;16.80;99.90;;;;;;5021811;28;20241;-74
2023/10/09 15:18:52;;;;;;;4.50;2.55;;;16.90;99.90;;;;;;5032086;28;20047;-75
2023/10/09 15:21:20;;;;;;;3.05;1.85;;;16.80;99.90;;;;;;5043186;28;20447;-74
2023/10/09 15:23:46;;;;;;;2.45;1.30;;;16.80;99.90;;;;;;5036690;28;20328;-75
2023/10/09 15:26:15;;;;;;;2.95;1.67;;;16.80;99.90;;;;;;5027006;28;20484;-75
2023/10/09 15:28:41;;;;;;;3.03;1.20;;;16.90;99.90;;;;;;5027230;28;20051;-75
2023/10/09 15:31:14;;;;;;;5.18;1.50;;;16.80;99.90;;;;;;5037806;28;20033;-74
2023/10/09 15:33:41;;;;;;;5.95;1.33;;;16.80;99.90;;;;;;5034634;28;20046;-76
2023/10/09 15:36:13;;;;;;;3.55;1.45;;;16.80;99.90;;;;;;5042490;28;20055;-74
2023/10/09 15:38:39;;;;;;;2.13;1.67;;;16.80;99.90;;;;;;5015473;28;20038;-76
2023/10/09 15:41:06;;;;;;;2.95;1.20;;;16.70;99.90;;;;;;5026973;28;20065;-75
2023/10/09 15:43:33;;;;;;;3.22;1.23;;;16.70;99.90;;;;;;5039606;28;20045;-74
2023/10/09 15:45:59;;;;;;;1.38;1.25;;;16.70;99.90;;;;;;5021372;28;20400;-75
2023/10/09 15:48:25;;;;;;;3.28;1.25;;;16.70;99.90;;;;;;5021958;28;20059;-74
2023/10/09 15:50:51;;;;;;;3.72;1.70;;;16.70;99.90;;;;;;5022352;28;20132;-74
2023/10/09 15:53:17;;;;;;;5.07;2.28;;;16.60;99.90;;;;;;5018660;28;20124;-74
2023/10/09 15:55:51;;;;;;;2.92;1.17;;;16.60;99.90;;;;;;5041299;28;20045;-75
2023/10/09 15:58:16;;;;;;;6.22;1.55;;;16.60;99.90;;;;;;5040102;28;20209;-75